Friday, March 27, 2015, 8:28 PM EDT

KSHD, Staunton / Shenandoah

Location: Weyers Cave, VA, United States Lat: 38.267
Local Time: 8:28 PM EDT ( 0:28 GMT) Lon: -78.9
Time Zone: US/Eastern Elev: 1200 ft

Show me the last for .
Show Decoded

2015-03-27 19:55 METAR KSHD 272355Z AUTO 32010KT 10SM OVC055 06/M04 A2981 RMK AO2 T00561045 10100
                 20056 =
2015-03-27 19:35 METAR KSHD 272335Z AUTO 33009G16KT 10SM OVC055 06/M04 A2979 RMK AO2 T00631045 =
2015-03-27 19:15 METAR KSHD 272315Z AUTO 33012KT 10SM BKN050 OVC065 07/M04 A2980 RMK AO2
                 T00711041 =
2015-03-27 18:55 METAR KSHD 272255Z AUTO 34011G15KT 10SM OVC050 08/M04 A2978 RMK AO2 T00771036 =
2015-03-27 18:35 METAR KSHD 272235Z AUTO 36007KT 10SM OVC060 08/M03 A2978 RMK AO2 T00821031 =
2015-03-27 18:15 METAR KSHD 272215Z AUTO 01007KT 10SM OVC060 09/M02 A2976 RMK AO2 T00851024 =
2015-03-27 17:55 METAR KSHD 272155Z AUTO 04006KT 10SM OVC060 09/M02 A2975 RMK AO2 T00851024 =
2015-03-27 17:35 METAR KSHD 272135Z AUTO 05010KT 10SM SCT050 OVC060 09/M02 A2974 RMK AO2
                 T00901024 =
2015-03-27 17:15 METAR KSHD 272115Z AUTO 35007KT 10SM SCT060 BKN070 OVC110 10/M02 A2974 RMK AO2
                 T00981025 =
2015-03-27 16:55 METAR KSHD 272055Z AUTO 06007KT 10SM SCT060 OVC110 09/M02 A2975 RMK AO2
                 T00911024 =
2015-03-27 16:35 METAR KSHD 272035Z AUTO 01003KT 10SM BKN060 OVC110 09/M02 A2974 RMK AO2
                 T00941020 =
2015-03-27 16:15 METAR KSHD 272015Z AUTO 05006KT 10SM SCT046 OVC060 09/M02 A2975 RMK AO2
                 T00891018 =
2015-03-27 15:55 METAR KSHD 271955Z AUTO 04007KT 10SM BKN046 OVC060 10/M01 A2975 RMK AO2
                 T00981009 =
2015-03-27 15:35 METAR KSHD 271935Z AUTO 35003KT 10SM SCT046 OVC050 08/M02 A2974 RMK AO2
                 T00821022 =
2015-03-27 15:15 METAR KSHD 271915Z AUTO 07006KT 10SM BKN044 OVC049 08/M01 A2976 RMK AO2
                 T00841012 =
2015-03-27 14:55 METAR KSHD 271855Z AUTO 10003KT 10SM BKN042 OVC047 08/M01 A2976 RMK AO2
                 T00771012 =
2015-03-27 14:35 METAR KSHD 271835Z AUTO 00000KT 10SM BKN040 OVC048 08/00 A2977 RMK AO2 T00821003
                 =
2015-03-27 14:15 METAR KSHD 271815Z AUTO 00000KT 10SM BKN037 OVC048 07/M01 A2979 RMK AO2
                 T00721009 =
2015-03-27 13:55 METAR KSHD 271755Z AUTO 35005KT 10SM BKN037 OVC048 08/M01 A2979 RMK AO2 60004
                 T00751007 10075 20041 =
2015-03-27 13:35 METAR KSHD 271735Z AUTO 02004KT 10SM BKN035 OVC044 07/00 A2980 RMK AO2 T00701002
                 =
2015-03-27 13:15 METAR KSHD 271715Z AUTO 00000KT 10SM SCT029 BKN039 OVC044 07/00 A2980 RMK AO2
                 T00671001 =
2015-03-27 12:55 METAR KSHD 271655Z AUTO 02004KT 10SM SCT029 BKN037 OVC043 06/00 A2980 RMK AO2
                 T00640003 =
2015-03-27 12:35 METAR KSHD 271635Z AUTO 35006KT 10SM BKN043 OVC090 07/00 A2981 RMK AO2 T00661003
                 =
2015-03-27 12:15 METAR KSHD 271615Z AUTO 35007KT 10SM SCT024 SCT039 BKN090 07/01 A2981 RMK AO2
                 T00650008 =
2015-03-27 11:55 METAR KSHD 271555Z AUTO 03008KT 10SM SCT044 BKN070 BKN090 06/01 A2981 RMK AO2
                 T00610013 =
2015-03-27 11:35 METAR KSHD 271535Z AUTO 02007KT 10SM BKN042 OVC080 06/01 A2983 RMK AO2 T00570008
                 =
2015-03-27 11:15 METAR KSHD 271515Z AUTO 02007KT 10SM BKN042 BKN047 OVC060 06/01 A2982 RMK AO2
                 T00560012 =
2015-03-27 10:55 METAR KSHD 271455Z AUTO 03007KT 10SM SCT034 BKN047 OVC055 05/01 A2983 RMK AO2
                 60004 T00520010 =
2015-03-27 10:35 METAR KSHD 271435Z AUTO 02008KT 10SM BKN031 OVC045 05/01 A2984 RMK AO2 T00510011
                 =
2015-03-27 10:15 METAR KSHD 271415Z AUTO 01008KT 10SM OVC031 05/02 A2982 RMK AO2 T00500015 =
2015-03-27 09:55 METAR KSHD 271355Z AUTO 02007KT 10SM OVC034 05/02 A2982 RMK AO2 T00460021 =
2015-03-27 09:35 METAR KSHD 271335Z AUTO 04009KT 7SM SCT020 BKN038 OVC047 05/02 A2979 RMK AO2
                 T00450024 =
2015-03-27 09:15 METAR KSHD 271315Z AUTO 02007KT 10SM DZ SCT014 BKN020 OVC032 04/02 A2981 RMK AO2
                 T00430022 =
2015-03-27 08:55 METAR KSHD 271255Z AUTO 03010KT 10SM -RA BKN014 BKN027 OVC042 04/02 A2981 RMK
                 AO2 P0004 T00440022 =
2015-03-27 08:35 METAR KSHD 271235Z AUTO 01008G15KT 10SM -RA BKN014 OVC026 05/02 A2980 RMK AO2
                 P0003 T00450023 =
2015-03-27 08:15 METAR KSHD 271215Z AUTO 02008KT 10SM -RA BKN014 OVC020 05/04 A2979 RMK AO2 P0002
                 T00540036 =
2015-03-27 07:55 METAR KSHD 271155Z AUTO 02004KT 10SM -RA BKN020 OVC024 06/04 A2979 RMK AO2 P0001
                 60020 70025 T00550040 10080 20052 =
2015-03-27 07:35 METAR KSHD 271135Z AUTO 00000KT 10SM -DZ BKN027 OVC037 05/04 A2981 RMK AO2
                 T00520037 =
2015-03-27 07:15 METAR KSHD 271115Z AUTO 04003KT 10SM -DZ OVC027 05/04 A2979 RMK AO2 T00530038 =
2015-03-27 06:55 METAR KSHD 271055Z AUTO 01003KT 10SM -RA BKN027 BKN035 OVC049 05/04 A2979 RMK
                 AO2 T00530040 =
2015-03-27 06:35 METAR KSHD 271035Z AUTO 02004KT 10SM -RA SCT007 SCT028 OVC049 05/04 A2979 RMK
                 AO2 T00540040 =
2015-03-27 06:15 METAR KSHD 271015Z AUTO 03004KT 10SM -DZ SCT007 BKN060 OVC070 05/04 A2979 RMK
                 AO2 T00520039 =
2015-03-27 05:35 METAR KSHD 270935Z AUTO 05004KT 10SM RA SCT046 OVC050 05/04 A2978 RMK AO2 P0001
                 T00540038 =
2015-03-27 05:15 METAR KSHD 270915Z AUTO 06004KT 10SM DZ SCT046 OVC055 06/04 A2978 RMK AO2 P0001
                 T00550040 =
2015-03-27 04:55 METAR KSHD 270855Z AUTO 06006KT 7SM -RA SCT027 BKN035 OVC046 06/04 A2977 RMK AO2
                 P0007 60018 T00550040 =
2015-03-27 04:35 METAR KSHD 270835Z AUTO 03005KT 10SM -RA BKN036 OVC046 06/04 A2979 RMK AO2 P0003
                 T00600042 =
2015-03-27 04:15 METAR KSHD 270815Z AUTO 03005KT 10SM -RA SCT036 OVC044 06/04 A2981 RMK AO2 P0001
                 T00600042 =
2015-03-27 03:35 METAR KSHD 270735Z AUTO 01005KT 10SM -RA BKN017 BKN022 OVC040 07/05 A2982 RMK
                 AO2 P0002 T00660047 =
2015-03-27 03:15 METAR KSHD 270715Z AUTO 02007KT 10SM -RA SCT015 BKN019 OVC026 07/05 A2982 RMK
                 AO2 P0001 T00690050 =
2015-03-27 02:55 METAR KSHD 270655Z AUTO 02007KT 10SM -RA BKN023 BKN028 OVC047 07/05 A2981 RMK
                 AO2 P0008 T00710052 =
2015-03-27 02:35 METAR KSHD 270635Z AUTO 01005KT 7SM RA BKN028 OVC047 08/05 A2980 RMK AO2 P0005
                 T00750053 =
2015-03-27 02:15 METAR KSHD 270615Z AUTO 01007KT 10SM RA BKN030 BKN050 OVC060 08/06 A2979 RMK AO2
                 P0001 T00800057 =
2015-03-27 01:55 METAR KSHD 270555Z AUTO 04007KT 10SM BKN050 OVC060 08/06 A2978 RMK AO2 P0002
                 60005 T00790058 10171 20078 402480078 =
2015-03-27 01:35 METAR KSHD 270535Z AUTO 04008KT 10SM RA SCT026 BKN032 OVC050 08/06 A2979 RMK AO2
                 P0002 T00800060 =
2015-03-27 01:15 METAR KSHD 270515Z AUTO 03008KT 10SM -RA SCT032 OVC042 08/06 A2980 RMK AO2 P0001
                 T00840060 =
2015-03-27 00:55 METAR KSHD 270455Z AUTO 02009KT 10SM RA SCT030 BKN042 OVC060 09/06 A2979 RMK AO2
                 P0001 T00900063 =
2015-03-27 00:35 METAR KSHD 270435Z AUTO 02011G16KT 10SM RA SCT030 BKN042 OVC060 10/06 A2977 RMK
                 AO2 T01000058 =
2015-03-27 00:15 METAR KSHD 270415Z AUTO 01012G19KT 10SM BKN030 OVC042 10/06 A2977 RMK AO2
                 T01040056 =
2015-03-26 23:55 METAR KSHD 270355Z AUTO 02015G19KT 10SM BKN030 BKN037 OVC044 11/06 A2976 RMK AO2
                 T01070062 =
2015-03-26 23:35 METAR KSHD 270335Z AUTO 02013G18KT 10SM SCT032 BKN038 OVC046 12/08 A2975 RMK AO2
                 T01160078 =
2015-03-26 23:15 METAR KSHD 270315Z AUTO 03012G17KT 10SM -DZ BKN030 OVC039 13/10 A2975 RMK AO2
                 T01320095 =
2015-03-26 22:55 METAR KSHD 270255Z AUTO 01008KT 10SM RA OVC039 15/10 A2973 RMK AO2 60001
                 T01520100 =
2015-03-26 22:35 METAR KSHD 270235Z AUTO 33003KT 10SM BKN041 OVC060 15/10 A2973 RMK AO2 T01520100
                 =
2015-03-26 22:15 METAR KSHD 270215Z AUTO 00000KT 10SM SCT043 OVC060 14/12 A2973 RMK AO2 T01400121
                 =
2015-03-26 21:55 METAR KSHD 270155Z AUTO 18004KT 10SM SCT060 BKN070 OVC095 14/12 A2972 RMK AO2
                 T01400119 =
2015-03-26 21:35 METAR KSHD 270135Z AUTO 31003KT 10SM SCT060 BKN095 OVC120 14/12 A2972 RMK AO2
                 T01400118 =
2015-03-26 21:15 METAR KSHD 270115Z AUTO 00000KT 10SM BKN080 OVC110 14/12 A2970 RMK AO2 T01440118
                 =
2015-03-26 20:55 METAR KSHD 270055Z AUTO 00000KT 10SM BKN080 OVC090 15/12 A2970 RMK AO2 LTG DSNT
                 E P0001 T01460123 =
2015-03-26 20:35 METAR KSHD 270035Z AUTO 00000KT 10SM OVC090 16/11 A2969 RMK AO2 LTG DSNT E P0001
                 T01640107 =

Support USWX by starting your Amazon purchase here.